Terminal Aerodrome Forecast
Issued by NWS

Home | Current Version | Previous Version | Text Only | Print | Product List | Glossary On
Versions: 1 2 3 4 5 6 7 8 9 10 11 12 13 14 15
000
FTUS44 KMAF 190000 AAA
TAFPEQ
TAF AMD
KPEQ 190011Z 1900/1924 08012KT P6SM SCT040 OVC050
      TEMPO 1900/1904 VRB15G25KT 3SM +TSRA BKN024CB
     FM190400 08010KT P6SM OVC020
      TEMPO 1904/1908 4SM TSRA BR BKN015CB
     FM190800 08009KT P6SM OVC020
      TEMPO 1908/1912 4SM TSRA BR OVC010CB
     FM191200 10007KT P6SM OVC020
      TEMPO 1912/1916 4SM TSRA BR OVC010CB
     FM191600 10006KT P6SM OVC030
      TEMPO 1916/1920 5SM TSRA OVC020CB=

USA.gov is the U.S. government's official web portal to all federal, state and local government web resources and services.